createdAt,value
2022-10-11T13:01:08.509Z,102320.50
2022-10-11T13:04:51.378Z,102321.31
2022-10-11T13:07:34.039Z,102303.78
2022-10-11T13:11:04.148Z,102323.00
2022-10-11T13:18:15.508Z,102314.84
2022-10-11T13:29:14.634Z,102312.22
2022-10-11T13:36:51.861Z,102317.56
2022-10-11T13:40:09.571Z,102310.50
2022-10-11T13:46:42.117Z,102313.09
2022-10-11T13:50:22.752Z,102318.34
2022-10-11T14:00:17.997Z,102325.31
2022-10-11T14:03:52.448Z,102318.38
2022-10-11T14:08:26.754Z,102308.72
2022-10-11T14:14:21.773Z,102320.06
2022-10-11T14:18:15.079Z,102306.16
2022-10-11T14:21:09.515Z,102321.09
2022-10-11T14:37:03.571Z,102317.81
2022-10-11T14:47:49.676Z,102326.66
2022-10-11T14:50:18.266Z,102320.53
2022-10-11T14:54:25.932Z,102322.31
2022-10-11T14:56:43.244Z,102317.94
2022-10-11T14:59:44.000Z,102316.19
2022-10-11T15:02:57.383Z,102317.03
2022-10-11T15:09:35.279Z,102321.41
2022-10-11T15:15:33.363Z,102317.97
2022-10-11T15:18:48.232Z,102319.75
2022-10-11T15:25:42.967Z,102322.38
2022-10-11T15:29:04.206Z,102325.94
2022-10-11T15:31:54.153Z,102324.16
2022-10-11T15:37:14.891Z,102322.41
2022-10-11T15:40:13.546Z,102325.09
2022-10-11T15:44:45.882Z,102327.72
2022-10-11T15:47:32.440Z,102324.22
2022-10-11T15:51:12.187Z,102324.28
2022-10-11T15:54:13.274Z,102318.19
2022-10-11T15:57:12.705Z,102314.69
2022-10-11T16:00:41.119Z,102331.41
2022-10-11T16:03:32.755Z,102328.78
2022-10-11T16:09:39.697Z,102322.69
2022-10-11T16:16:20.586Z,102330.63
2022-10-11T16:23:13.320Z,102341.22
2022-10-11T16:26:26.476Z,102340.38
2022-10-11T16:29:34.863Z,102335.16
2022-10-11T16:32:34.466Z,102338.66
2022-10-11T16:39:11.986Z,102352.72
2022-10-11T16:51:41.214Z,102348.44
2022-10-11T16:54:52.473Z,102345.81
2022-10-11T16:57:48.679Z,102347.59
2022-10-11T17:01:00.550Z,102342.34
2022-10-11T17:04:15.252Z,102351.97
2022-10-11T17:07:21.864Z,102346.75
2022-10-11T17:10:33.017Z,102352.88
2022-10-11T17:14:14.530Z,102345.06
2022-10-11T17:22:09.893Z,102337.22
2022-10-11T17:24:59.791Z,102337.25
2022-10-11T17:31:49.329Z,102336.41
2022-10-11T17:38:52.163Z,102352.19
2022-10-11T17:41:42.086Z,102341.69
2022-10-11T17:44:44.357Z,102335.59
2022-10-11T17:47:48.964Z,102343.47
2022-10-11T17:50:50.409Z,102338.22
2022-10-11T17:54:07.956Z,102342.59
2022-10-11T17:56:52.347Z,102338.19
2022-10-11T17:59:53.076Z,102343.44
2022-10-11T18:02:59.106Z,102351.31
2022-10-11T18:05:46.011Z,102352.16
2022-10-11T18:08:55.668Z,102353.03
2022-10-11T18:11:38.429Z,102356.50
2022-10-11T18:14:14.887Z,102353.00
2022-10-11T18:17:51.098Z,102356.47
2022-10-11T18:20:32.998Z,102349.47
2022-10-11T18:23:56.009Z,102351.19
2022-10-11T18:30:26.216Z,102359.00
2022-10-11T18:33:15.511Z,102356.38
2022-10-11T18:36:21.285Z,102344.09
2022-10-11T18:42:57.653Z,102344.06
2022-10-11T18:45:35.793Z,102353.63
2022-10-11T18:48:25.649Z,102358.00
2022-10-11T18:51:46.544Z,102344.91
2022-10-11T18:55:01.790Z,102358.00
2022-10-11T18:57:52.632Z,102349.22
2022-10-11T19:01:41.069Z,102358.84
2022-10-11T19:04:31.289Z,102354.41
2022-10-11T19:10:38.947Z,102356.91
2022-10-11T19:13:50.855Z,102352.50
2022-10-11T19:20:48.636Z,102358.53
2022-10-11T19:23:49.296Z,102355.91
2022-10-11T19:31:14.348Z,102364.59
2022-10-11T19:35:07.922Z,102359.31
2022-10-11T19:36:52.788Z,102364.53
2022-10-11T19:40:35.863Z,102363.59
2022-10-11T19:48:06.513Z,102361.69
2022-10-11T19:51:15.273Z,102367.75
2022-10-11T19:54:01.075Z,102366.88
2022-10-11T19:57:22.736Z,102360.69
2022-10-11T20:00:34.949Z,102369.38
2022-10-11T20:24:15.681Z,102364.53
2022-10-11T20:27:24.169Z,102367.97
2022-10-11T20:30:53.471Z,102363.56
2022-10-11T20:33:42.820Z,102374.03
2022-10-11T20:40:02.888Z,102379.91
2022-10-11T20:43:31.833Z,102375.41
2022-10-11T20:50:18.447Z,102370.03
2022-10-11T20:56:46.748Z,102371.56
2022-10-11T21:03:31.176Z,102385.38
2022-10-11T21:06:59.818Z,102384.41
2022-10-11T21:13:14.489Z,102366.84
2022-10-11T21:16:53.377Z,102384.28
2022-10-11T21:20:01.215Z,102378.97
2022-10-11T21:32:47.642Z,102387.50
2022-10-11T21:35:41.259Z,102389.19
2022-10-11T21:38:46.209Z,102398.72
2022-10-11T21:41:59.386Z,102395.16
2022-10-11T21:44:43.578Z,102383.75
2022-10-11T21:47:39.307Z,102388.94
2022-10-11T21:50:24.197Z,102381.88
2022-10-11T21:53:04.105Z,102384.41
2022-10-11T21:55:45.091Z,102381.59
2022-10-11T21:58:34.128Z,102387.66
2022-10-11T22:01:40.123Z,102382.44
2022-10-11T22:04:40.990Z,102382.34
2022-10-11T22:07:37.655Z,102371.84
2022-10-11T22:10:43.930Z,102390.16
2022-10-11T22:17:32.974Z,102382.16
2022-10-11T22:22:17.111Z,102381.19
2022-10-11T22:24:03.603Z,102395.16
2022-10-11T22:27:04.027Z,102394.19
2022-10-11T22:30:07.080Z,102374.03
2022-10-11T22:32:50.449Z,102394.97
2022-10-11T22:35:58.380Z,102386.94
2022-10-11T22:39:08.282Z,102383.41
2022-10-11T22:42:09.150Z,102391.03
2022-10-11T22:44:58.643Z,102391.00
2022-10-11T22:47:56.327Z,102402.25
2022-10-11T22:50:44.468Z,102388.31
2022-10-11T22:55:21.920Z,102397.81
2022-10-11T22:57:16.810Z,102391.66
2022-10-11T23:00:13.584Z,102387.13
2022-10-11T23:03:07.246Z,102388.81
2022-10-11T23:06:12.088Z,102394.91
2022-10-11T23:09:07.098Z,102389.59
2022-10-11T23:12:09.312Z,102390.47
2022-10-11T23:14:55.409Z,102391.31
2022-10-11T23:17:56.969Z,102393.06
2022-10-11T23:20:42.737Z,102391.25
2022-10-11T23:23:30.722Z,102381.56
2022-10-11T23:26:29.097Z,102388.53
2022-10-11T23:29:31.631Z,102394.47
2022-10-11T23:32:11.361Z,102392.69
2022-10-11T23:34:57.682Z,102403.22
2022-10-11T23:37:52.006Z,102394.47
2022-10-11T23:40:31.470Z,102389.22
2022-10-11T23:43:23.748Z,102399.75
2022-10-11T23:46:06.463Z,102393.59
2022-10-11T23:49:09.237Z,102386.53
2022-10-11T23:51:50.947Z,102385.66
2022-10-11T23:54:44.406Z,102403.09
2022-10-11T23:57:30.021Z,102401.25
